sensor_id;sensor_type;location;lat;lon;timestamp;P1;durP1;ratioP1;P2;durP2;ratioP2
74926;SDS011;63488;48.092;-1.640;2022-09-12T07:11:22;1.55;;;0.80;;
74926;SDS011;63488;48.092;-1.640;2022-09-12T07:13:48;3.58;;;1.00;;
74926;SDS011;63488;48.092;-1.640;2022-09-12T07:16:15;2.50;;;1.02;;
74926;SDS011;63488;48.092;-1.640;2022-09-12T07:18:40;2.33;;;1.02;;
74926;SDS011;63488;48.092;-1.640;2022-09-12T07:21:07;3.10;;;1.00;;
74926;SDS011;63488;48.092;-1.640;2022-09-12T07:23:32;2.00;;;1.08;;
74926;SDS011;63488;48.092;-1.640;2022-09-12T07:25:59;3.45;;;0.75;;
74926;SDS011;63488;48.092;-1.640;2022-09-12T07:28:29;3.92;;;0.90;;
74926;SDS011;63488;48.092;-1.640;2022-09-12T07:33:20;4.30;;;1.05;;
74926;SDS011;63488;48.092;-1.640;2022-09-12T07:35:46;2.42;;;0.93;;
74926;SDS011;63488;48.092;-1.640;2022-09-12T07:38:11;2.00;;;0.90;;
74926;SDS011;63488;48.092;-1.640;2022-09-12T07:40:37;4.22;;;1.42;;
74926;SDS011;63488;48.092;-1.640;2022-09-12T07:43:02;4.88;;;0.85;;
74926;SDS011;63488;48.092;-1.640;2022-09-12T07:45:28;2.75;;;0.90;;
74926;SDS011;63488;48.092;-1.640;2022-09-12T07:47:53;2.13;;;0.70;;
74926;SDS011;63488;48.092;-1.640;2022-09-12T07:50:19;2.25;;;0.98;;
74926;SDS011;63488;48.092;-1.640;2022-09-12T07:52:44;2.40;;;0.82;;
74926;SDS011;63488;48.092;-1.640;2022-09-12T07:55:10;4.25;;;0.90;;
74926;SDS011;63488;48.092;-1.640;2022-09-12T07:57:35;1.50;;;0.80;;
74926;SDS011;63488;48.092;-1.640;2022-09-12T08:00:01;3.00;;;0.80;;
74926;SDS011;63488;48.092;-1.640;2022-09-12T08:02:26;3.22;;;0.95;;
74926;SDS011;63488;48.092;-1.640;2022-09-12T08:04:51;2.53;;;0.98;;
74926;SDS011;63488;48.092;-1.640;2022-09-12T08:07:17;2.47;;;1.00;;
74926;SDS011;63488;48.092;-1.640;2022-09-12T08:09:43;3.67;;;1.20;;
74926;SDS011;63488;48.092;-1.640;2022-09-12T08:12:08;3.13;;;0.90;;
74926;SDS011;63488;48.092;-1.640;2022-09-12T08:14:34;6.80;;;0.95;;
74926;SDS011;63488;48.092;-1.640;2022-09-12T08:16:59;1.77;;;0.80;;
74926;SDS011;63488;48.092;-1.640;2022-09-12T08:19:24;2.75;;;0.95;;
74926;SDS011;63488;48.092;-1.640;2022-09-12T08:21:50;2.85;;;1.10;;
74926;SDS011;63488;48.092;-1.640;2022-09-12T08:24:16;3.20;;;1.27;;
74926;SDS011;63488;48.092;-1.640;2022-09-12T08:26:42;4.38;;;1.48;;
74926;SDS011;63488;48.092;-1.640;2022-09-12T08:29:07;4.45;;;1.40;;
74926;SDS011;63488;48.092;-1.640;2022-09-12T08:31:32;3.03;;;1.45;;
74926;SDS011;63488;48.092;-1.640;2022-09-12T08:34:00;4.32;;;1.17;;
74926;SDS011;63488;48.092;-1.640;2022-09-12T08:36:26;2.33;;;1.30;;
74926;SDS011;63488;48.092;-1.640;2022-09-12T08:38:59;3.58;;;1.17;;
74926;SDS011;63488;48.092;-1.640;2022-09-12T08:44:15;3.83;;;0.85;;
74926;SDS011;63488;48.092;-1.640;2022-09-12T08:49:20;3.03;;;1.90;;
74926;SDS011;63488;48.092;-1.640;2022-09-12T08:51:49;1.98;;;1.00;;
74926;SDS011;63488;48.092;-1.640;2022-09-12T08:54:19;4.13;;;1.60;;
74926;SDS011;63488;48.092;-1.640;2022-09-12T08:56:45;2.97;;;1.40;;
74926;SDS011;63488;48.092;-1.640;2022-09-12T08:59:11;2.50;;;1.60;;
74926;SDS011;63488;48.092;-1.640;2022-09-12T09:01:41;4.65;;;1.52;;
74926;SDS011;63488;48.092;-1.640;2022-09-12T09:07:14;4.03;;;1.33;;
74926;SDS011;63488;48.092;-1.640;2022-09-12T09:12:39;3.85;;;1.73;;
74926;SDS011;63488;48.092;-1.640;2022-09-12T09:15:13;2.20;;;1.10;;
74926;SDS011;63488;48.092;-1.640;2022-09-12T09:18:28;5.18;;;1.13;;
74926;SDS011;63488;48.092;-1.640;2022-09-12T09:20:37;2.90;;;1.00;;
74926;SDS011;63488;48.092;-1.640;2022-09-12T09:28:15;4.95;;;1.27;;
74926;SDS011;63488;48.092;-1.640;2022-09-12T09:30:42;5.40;;;1.00;;
74926;SDS011;63488;48.092;-1.640;2022-09-12T09:33:09;7.07;;;0.95;;
74926;SDS011;63488;48.092;-1.640;2022-09-12T09:35:43;3.70;;;1.42;;
74926;SDS011;63488;48.092;-1.640;2022-09-12T09:40:44;2.90;;;0.90;;
74926;SDS011;63488;48.092;-1.640;2022-09-12T09:43:19;2.17;;;0.75;;
74926;SDS011;63488;48.092;-1.640;2022-09-12T09:45:46;1.65;;;0.80;;
74926;SDS011;63488;48.092;-1.640;2022-09-12T09:48:18;4.60;;;1.70;;
74926;SDS011;63488;48.092;-1.640;2022-09-12T09:50:44;3.83;;;1.33;;
74926;SDS011;63488;48.092;-1.640;2022-09-12T09:55:54;4.05;;;0.70;;
74926;SDS011;63488;48.092;-1.640;2022-09-12T09:58:30;2.03;;;0.75;;
74926;SDS011;63488;48.092;-1.640;2022-09-12T10:00:59;3.03;;;0.63;;
74926;SDS011;63488;48.092;-1.640;2022-09-12T10:06:01;2.45;;;0.80;;
74926;SDS011;63488;48.092;-1.640;2022-09-12T10:08:28;2.10;;;0.85;;
74926;SDS011;63488;48.092;-1.640;2022-09-12T10:11:01;2.60;;;0.73;;
74926;SDS011;63488;48.092;-1.640;2022-09-12T10:13:29;2.25;;;0.70;;
74926;SDS011;63488;48.092;-1.640;2022-09-12T10:15:57;4.10;;;0.70;;
74926;SDS011;63488;48.092;-1.640;2022-09-12T10:18:33;4.18;;;0.80;;
74926;SDS011;63488;48.092;-1.640;2022-09-12T10:20:59;2.88;;;0.65;;
74926;SDS011;63488;48.092;-1.640;2022-09-12T10:23:29;2.22;;;1.00;;
74926;SDS011;63488;48.092;-1.640;2022-09-12T10:25:59;4.00;;;0.70;;
74926;SDS011;63488;48.092;-1.640;2022-09-12T10:28:33;1.50;;;0.50;;
74926;SDS011;63488;48.092;-1.640;2022-09-12T10:31:00;1.50;;;0.70;;
74926;SDS011;63488;48.092;-1.640;2022-09-12T10:33:26;3.95;;;0.80;;
74926;SDS011;63488;48.092;-1.640;2022-09-12T10:35:52;4.38;;;0.80;;
74926;SDS011;63488;48.092;-1.640;2022-09-12T10:38:30;2.80;;;0.70;;
74926;SDS011;63488;48.092;-1.640;2022-09-12T10:40:58;3.80;;;0.90;;
74926;SDS011;63488;48.092;-1.640;2022-09-12T10:45:49;7.40;;;0.80;;
74926;SDS011;63488;48.092;-1.640;2022-09-12T10:48:27;1.92;;;0.90;;
74926;SDS011;63488;48.092;-1.640;2022-09-12T10:50:54;1.75;;;0.60;;
74926;SDS011;63488;48.092;-1.640;2022-09-12T10:53:25;1.38;;;0.65;;
74926;SDS011;63488;48.092;-1.640;2022-09-12T10:56:07;3.92;;;0.90;;
74926;SDS011;63488;48.092;-1.640;2022-09-12T11:06:14;3.15;;;0.70;;
74926;SDS011;63488;48.092;-1.640;2022-09-12T11:08:56;3.80;;;0.60;;
74926;SDS011;63488;48.092;-1.640;2022-09-12T11:26:56;2.28;;;0.70;;
74926;SDS011;63488;48.092;-1.640;2022-09-12T11:39:36;0.50;;;0.50;;
74926;SDS011;63488;48.092;-1.640;2022-09-12T11:42:03;3.03;;;0.55;;
74926;SDS011;63488;48.092;-1.640;2022-09-12T11:44:36;1.08;;;0.70;;
74926;SDS011;63488;48.092;-1.640;2022-09-12T11:47:06;0.90;;;0.50;;
74926;SDS011;63488;48.092;-1.640;2022-09-12T11:49:32;0.40;;;0.38;;
74926;SDS011;63488;48.092;-1.640;2022-09-12T11:52:05;0.98;;;0.55;;
74926;SDS011;63488;48.092;-1.640;2022-09-12T11:54:37;2.05;;;0.70;;
74926;SDS011;63488;48.092;-1.640;2022-09-12T11:57:17;2.22;;;0.60;;
74926;SDS011;63488;48.092;-1.640;2022-09-12T12:02:29;2.08;;;0.70;;
74926;SDS011;63488;48.092;-1.640;2022-09-12T12:07:43;1.25;;;0.50;;
74926;SDS011;63488;48.092;-1.640;2022-09-12T12:15:46;7.40;;;1.17;;
74926;SDS011;63488;48.092;-1.640;2022-09-12T12:18:16;4.65;;;2.10;;
74926;SDS011;63488;48.092;-1.640;2022-09-12T12:20:42;1.23;;;0.55;;
74926;SDS011;63488;48.092;-1.640;2022-09-12T12:23:25;5.20;;;0.55;;
74926;SDS011;63488;48.092;-1.640;2022-09-12T12:25:52;2.60;;;0.43;;
74926;SDS011;63488;48.092;-1.640;2022-09-12T12:31:17;1.70;;;0.70;;
74926;SDS011;63488;48.092;-1.640;2022-09-12T12:36:08;0.93;;;0.40;;
74926;SDS011;63488;48.092;-1.640;2022-09-12T12:38:36;2.65;;;0.75;;
74926;SDS011;63488;48.092;-1.640;2022-09-12T12:43:44;1.15;;;0.60;;
74926;SDS011;63488;48.092;-1.640;2022-09-12T12:46:10;4.13;;;0.85;;
74926;SDS011;63488;48.092;-1.640;2022-09-12T12:48:48;4.57;;;0.70;;
74926;SDS011;63488;48.092;-1.640;2022-09-12T12:53:41;2.20;;;0.50;;
74926;SDS011;63488;48.092;-1.640;2022-09-12T12:56:20;2.42;;;0.50;;
74926;SDS011;63488;48.092;-1.640;2022-09-12T12:58:49;5.82;;;0.50;;
74926;SDS011;63488;48.092;-1.640;2022-09-12T13:01:21;0.73;;;0.45;;
74926;SDS011;63488;48.092;-1.640;2022-09-12T13:03:59;3.83;;;0.57;;
74926;SDS011;63488;48.092;-1.640;2022-09-12T13:06:33;2.17;;;0.60;;
74926;SDS011;63488;48.092;-1.640;2022-09-12T13:11:43;2.88;;;0.50;;
74926;SDS011;63488;48.092;-1.640;2022-09-12T13:14:32;1.40;;;0.70;;
74926;SDS011;63488;48.092;-1.640;2022-09-12T13:16:59;0.65;;;0.55;;
74926;SDS011;63488;48.092;-1.640;2022-09-12T13:19:27;1.77;;;0.60;;
74926;SDS011;63488;48.092;-1.640;2022-09-12T13:21:55;1.40;;;0.50;;
74926;SDS011;63488;48.092;-1.640;2022-09-12T13:24:22;2.10;;;0.43;;
74926;SDS011;63488;48.092;-1.640;2022-09-12T13:26:47;0.82;;;0.52;;
74926;SDS011;63488;48.092;-1.640;2022-09-12T13:31:38;1.70;;;0.60;;
74926;SDS011;63488;48.092;-1.640;2022-09-12T13:34:04;0.98;;;0.50;;
74926;SDS011;63488;48.092;-1.640;2022-09-12T13:39:01;6.38;;;0.93;;
74926;SDS011;63488;48.092;-1.640;2022-09-12T13:44:13;3.00;;;0.60;;
74926;SDS011;63488;48.092;-1.640;2022-09-12T13:46:41;1.65;;;0.60;;
74926;SDS011;63488;48.092;-1.640;2022-09-12T13:51:41;3.75;;;0.50;;
74926;SDS011;63488;48.092;-1.640;2022-09-12T13:54:11;1.85;;;0.50;;
74926;SDS011;63488;48.092;-1.640;2022-09-12T13:56:47;2.05;;;0.43;;
74926;SDS011;63488;48.092;-1.640;2022-09-12T13:59:13;2.58;;;0.65;;
74926;SDS011;63488;48.092;-1.640;2022-09-12T14:01:39;1.65;;;0.50;;
74926;SDS011;63488;48.092;-1.640;2022-09-12T14:04:16;1.27;;;0.50;;
74926;SDS011;63488;48.092;-1.640;2022-09-12T14:07:01;3.22;;;0.60;;
74926;SDS011;63488;48.092;-1.640;2022-09-12T14:09:32;2.42;;;0.68;;
74926;SDS011;63488;48.092;-1.640;2022-09-12T14:11:59;2.60;;;0.60;;
74926;SDS011;63488;48.092;-1.640;2022-09-12T14:14:37;3.08;;;0.52;;
74926;SDS011;63488;48.092;-1.640;2022-09-12T14:17:46;3.33;;;0.50;;
74926;SDS011;63488;48.092;-1.640;2022-09-12T14:20:07;5.15;;;0.35;;
74926;SDS011;63488;48.092;-1.640;2022-09-12T14:22:36;2.80;;;0.60;;
74926;SDS011;63488;48.092;-1.640;2022-09-12T14:25:03;2.08;;;0.43;;
74926;SDS011;63488;48.092;-1.640;2022-09-12T14:27:35;3.00;;;0.60;;
74926;SDS011;63488;48.092;-1.640;2022-09-12T14:30:04;1.17;;;0.47;;
74926;SDS011;63488;48.092;-1.640;2022-09-12T14:32:31;3.33;;;0.47;;
74926;SDS011;63488;48.092;-1.640;2022-09-12T14:37:51;4.40;;;0.43;;
74926;SDS011;63488;48.092;-1.640;2022-09-12T14:40:20;3.88;;;0.40;;
74926;SDS011;63488;48.092;-1.640;2022-09-12T14:42:46;2.75;;;0.30;;
74926;SDS011;63488;48.092;-1.640;2022-09-12T14:45:17;5.25;;;0.68;;
74926;SDS011;63488;48.092;-1.640;2022-09-12T14:47:42;3.35;;;0.73;;
74926;SDS011;63488;48.092;-1.640;2022-09-12T14:50:15;0.50;;;0.50;;
74926;SDS011;63488;48.092;-1.640;2022-09-12T14:52:40;0.70;;;0.40;;
74926;SDS011;63488;48.092;-1.640;2022-09-12T14:57:40;3.03;;;0.50;;
74926;SDS011;63488;48.092;-1.640;2022-09-12T15:02:44;2.20;;;0.55;;
74926;SDS011;63488;48.092;-1.640;2022-09-12T15:07:35;2.78;;;0.50;;
74926;SDS011;63488;48.092;-1.640;2022-09-12T15:10:03;1.30;;;0.60;;
74926;SDS011;63488;48.092;-1.640;2022-09-12T15:12:29;3.17;;;0.57;;
74926;SDS011;63488;48.092;-1.640;2022-09-12T15:15:16;4.13;;;0.70;;
74926;SDS011;63488;48.092;-1.640;2022-09-12T15:17:41;2.53;;;0.50;;
74926;SDS011;63488;48.092;-1.640;2022-09-12T15:20:07;3.00;;;0.60;;
74926;SDS011;63488;48.092;-1.640;2022-09-12T15:22:34;5.20;;;0.60;;
74926;SDS011;63488;48.092;-1.640;2022-09-12T15:25:00;0.95;;;0.50;;
74926;SDS011;63488;48.092;-1.640;2022-09-12T15:27:26;5.32;;;0.77;;
74926;SDS011;63488;48.092;-1.640;2022-09-12T15:29:52;1.85;;;0.68;;
74926;SDS011;63488;48.092;-1.640;2022-09-12T15:32:24;3.70;;;0.55;;
74926;SDS011;63488;48.092;-1.640;2022-09-12T15:34:49;3.35;;;0.80;;
74926;SDS011;63488;48.092;-1.640;2022-09-12T15:37:15;0.90;;;0.47;;
74926;SDS011;63488;48.092;-1.640;2022-09-12T15:39:41;1.80;;;0.55;;
74926;SDS011;63488;48.092;-1.640;2022-09-12T15:42:07;2.28;;;0.70;;
74926;SDS011;63488;48.092;-1.640;2022-09-12T15:44:33;3.10;;;0.60;;
74926;SDS011;63488;48.092;-1.640;2022-09-12T15:46:58;1.52;;;0.80;;
74926;SDS011;63488;48.092;-1.640;2022-09-12T15:49:24;2.60;;;0.50;;
74926;SDS011;63488;48.092;-1.640;2022-09-12T15:51:49;2.47;;;0.60;;
74926;SDS011;63488;48.092;-1.640;2022-09-12T15:54:14;1.55;;;0.60;;
74926;SDS011;63488;48.092;-1.640;2022-09-12T15:56:41;0.73;;;0.35;;
74926;SDS011;63488;48.092;-1.640;2022-09-12T15:59:06;1.05;;;0.50;;
74926;SDS011;63488;48.092;-1.640;2022-09-12T16:01:32;1.88;;;0.45;;
74926;SDS011;63488;48.092;-1.640;2022-09-12T16:03:57;5.13;;;0.70;;
74926;SDS011;63488;48.092;-1.640;2022-09-12T16:06:23;2.25;;;0.60;;
74926;SDS011;63488;48.092;-1.640;2022-09-12T16:08:49;2.42;;;0.55;;
74926;SDS011;63488;48.092;-1.640;2022-09-12T16:11:24;1.25;;;0.50;;
74926;SDS011;63488;48.092;-1.640;2022-09-12T16:13:53;1.98;;;0.50;;
74926;SDS011;63488;48.092;-1.640;2022-09-12T16:16:19;1.35;;;0.60;;
74926;SDS011;63488;48.092;-1.640;2022-09-12T16:18:45;2.10;;;0.60;;
74926;SDS011;63488;48.092;-1.640;2022-09-12T16:21:10;3.83;;;0.80;;
74926;SDS011;63488;48.092;-1.640;2022-09-12T16:23:36;2.08;;;0.60;;
74926;SDS011;63488;48.092;-1.640;2022-09-12T16:26:04;2.10;;;0.80;;
74926;SDS011;63488;48.092;-1.640;2022-09-12T16:28:29;2.60;;;0.80;;
74926;SDS011;63488;48.092;-1.640;2022-09-12T16:30:57;4.30;;;0.68;;
74926;SDS011;63488;48.092;-1.640;2022-09-12T16:33:23;2.55;;;0.57;;
74926;SDS011;63488;48.092;-1.640;2022-09-12T16:35:48;2.85;;;0.70;;
74926;SDS011;63488;48.092;-1.640;2022-09-12T16:38:16;1.60;;;0.80;;
74926;SDS011;63488;48.092;-1.640;2022-09-12T16:40:41;4.20;;;0.70;;
74926;SDS011;63488;48.092;-1.640;2022-09-12T16:43:06;1.77;;;0.73;;
74926;SDS011;63488;48.092;-1.640;2022-09-12T16:45:32;2.20;;;0.80;;
74926;SDS011;63488;48.092;-1.640;2022-09-12T16:47:57;3.08;;;1.00;;
74926;SDS011;63488;48.092;-1.640;2022-09-12T16:50:23;3.97;;;0.77;;
74926;SDS011;63488;48.092;-1.640;2022-09-12T16:52:48;2.45;;;0.73;;
74926;SDS011;63488;48.092;-1.640;2022-09-12T16:55:14;3.33;;;1.05;;
74926;SDS011;63488;48.092;-1.640;2022-09-12T16:57:39;2.05;;;0.70;;
74926;SDS011;63488;48.092;-1.640;2022-09-12T17:00:05;4.30;;;0.80;;
74926;SDS011;63488;48.092;-1.640;2022-09-12T17:02:31;1.40;;;0.60;;
74926;SDS011;63488;48.092;-1.640;2022-09-12T17:04:56;3.13;;;0.70;;
74926;SDS011;63488;48.092;-1.640;2022-09-12T17:07:21;3.35;;;0.70;;
74926;SDS011;63488;48.092;-1.640;2022-09-12T17:09:47;2.22;;;0.77;;
74926;SDS011;63488;48.092;-1.640;2022-09-12T17:12:12;2.47;;;0.57;;
74926;SDS011;63488;48.092;-1.640;2022-09-12T17:14:38;4.32;;;0.68;;
74926;SDS011;63488;48.092;-1.640;2022-09-12T17:17:03;3.00;;;0.73;;
74926;SDS011;63488;48.092;-1.640;2022-09-12T17:19:29;4.70;;;0.93;;
74926;SDS011;63488;48.092;-1.640;2022-09-12T17:21:55;2.35;;;0.80;;
74926;SDS011;63488;48.092;-1.640;2022-09-12T17:24:20;3.40;;;0.80;;
74926;SDS011;63488;48.092;-1.640;2022-09-12T17:26:46;2.35;;;0.70;;
74926;SDS011;63488;48.092;-1.640;2022-09-12T17:29:12;5.03;;;1.88;;
74926;SDS011;63488;48.092;-1.640;2022-09-12T17:31:38;3.17;;;1.80;;
74926;SDS011;63488;48.092;-1.640;2022-09-12T17:34:04;6.25;;;1.90;;
74926;SDS011;63488;48.092;-1.640;2022-09-12T17:36:29;4.70;;;2.10;;
74926;SDS011;63488;48.092;-1.640;2022-09-12T17:38:56;4.97;;;2.70;;
74926;SDS011;63488;48.092;-1.640;2022-09-12T17:41:22;2.95;;;1.33;;
74926;SDS011;63488;48.092;-1.640;2022-09-12T17:43:51;4.30;;;1.58;;
74926;SDS011;63488;48.092;-1.640;2022-09-12T17:46:18;4.18;;;1.17;;
74926;SDS011;63488;48.092;-1.640;2022-09-12T17:48:44;4.15;;;1.10;;
74926;SDS011;63488;48.092;-1.640;2022-09-12T17:51:10;0.98;;;0.70;;
74926;SDS011;63488;48.092;-1.640;2022-09-12T17:53:37;2.97;;;0.88;;
74926;SDS011;63488;48.092;-1.640;2022-09-12T17:56:03;4.82;;;1.00;;
74926;SDS011;63488;48.092;-1.640;2022-09-12T17:58:29;1.52;;;0.77;;
74926;SDS011;63488;48.092;-1.640;2022-09-12T18:01:01;2.97;;;1.13;;
74926;SDS011;63488;48.092;-1.640;2022-09-12T18:03:45;3.83;;;1.00;;
74926;SDS011;63488;48.092;-1.640;2022-09-12T18:06:10;2.75;;;0.70;;
74926;SDS011;63488;48.092;-1.640;2022-09-12T18:08:36;2.83;;;0.90;;
74926;SDS011;63488;48.092;-1.640;2022-09-12T18:11:03;3.03;;;0.95;;
74926;SDS011;63488;48.092;-1.640;2022-09-12T18:13:30;2.22;;;1.00;;
74926;SDS011;63488;48.092;-1.640;2022-09-12T18:16:00;4.18;;;0.90;;
74926;SDS011;63488;48.092;-1.640;2022-09-12T18:18:26;3.85;;;1.20;;
74926;SDS011;63488;48.092;-1.640;2022-09-12T18:20:51;5.22;;;1.75;;
74926;SDS011;63488;48.092;-1.640;2022-09-12T18:23:17;2.72;;;1.55;;
74926;SDS011;63488;48.092;-1.640;2022-09-12T18:25:42;2.05;;;0.98;;
74926;SDS011;63488;48.092;-1.640;2022-09-12T18:28:07;2.30;;;0.90;;
74926;SDS011;63488;48.092;-1.640;2022-09-12T18:30:38;3.45;;;0.80;;
74926;SDS011;63488;48.092;-1.640;2022-09-12T18:33:04;3.00;;;1.00;;
74926;SDS011;63488;48.092;-1.640;2022-09-12T18:35:29;2.22;;;0.70;;
74926;SDS011;63488;48.092;-1.640;2022-09-12T18:37:56;3.60;;;0.88;;
74926;SDS011;63488;48.092;-1.640;2022-09-12T18:40:21;3.05;;;1.10;;
74926;SDS011;63488;48.092;-1.640;2022-09-12T18:42:46;2.78;;;1.15;;
74926;SDS011;63488;48.092;-1.640;2022-09-12T18:45:12;2.95;;;0.85;;
74926;SDS011;63488;48.092;-1.640;2022-09-12T18:47:37;2.35;;;1.10;;
74926;SDS011;63488;48.092;-1.640;2022-09-12T18:50:02;2.88;;;1.02;;
74926;SDS011;63488;48.092;-1.640;2022-09-12T18:52:28;2.55;;;1.05;;
74926;SDS011;63488;48.092;-1.640;2022-09-12T18:54:53;2.45;;;0.70;;
74926;SDS011;63488;48.092;-1.640;2022-09-12T18:57:19;0.95;;;0.73;;
74926;SDS011;63488;48.092;-1.640;2022-09-12T18:59:44;3.50;;;1.00;;
74926;SDS011;63488;48.092;-1.640;2022-09-12T19:02:15;1.40;;;0.50;;
74926;SDS011;63488;48.092;-1.640;2022-09-12T19:04:41;1.50;;;0.70;;
74926;SDS011;63488;48.092;-1.640;2022-09-12T19:07:06;1.90;;;0.80;;
74926;SDS011;63488;48.092;-1.640;2022-09-12T19:09:31;4.20;;;0.88;;
74926;SDS011;63488;48.092;-1.640;2022-09-12T19:11:58;2.78;;;0.70;;
74926;SDS011;63488;48.092;-1.640;2022-09-12T19:14:24;2.45;;;0.80;;
74926;SDS011;63488;48.092;-1.640;2022-09-12T19:16:51;1.65;;;0.73;;
74926;SDS011;63488;48.092;-1.640;2022-09-12T19:19:16;2.10;;;1.00;;
74926;SDS011;63488;48.092;-1.640;2022-09-12T19:21:42;1.02;;;0.60;;
74926;SDS011;63488;48.092;-1.640;2022-09-12T19:24:08;2.35;;;0.50;;
74926;SDS011;63488;48.092;-1.640;2022-09-12T19:26:38;2.92;;;0.95;;
74926;SDS011;63488;48.092;-1.640;2022-09-12T19:29:04;3.13;;;0.50;;
74926;SDS011;63488;48.092;-1.640;2022-09-12T19:31:30;2.22;;;0.68;;
74926;SDS011;63488;48.092;-1.640;2022-09-12T19:34:03;1.50;;;0.43;;
74926;SDS011;63488;48.092;-1.640;2022-09-12T19:36:28;1.30;;;0.70;;
74926;SDS011;63488;48.092;-1.640;2022-09-12T19:38:54;7.47;;;0.85;;
74926;SDS011;63488;48.092;-1.640;2022-09-12T19:41:19;1.38;;;0.60;;
74926;SDS011;63488;48.092;-1.640;2022-09-12T19:43:44;1.77;;;0.63;;
74926;SDS011;63488;48.092;-1.640;2022-09-12T19:46:14;2.47;;;0.63;;
74926;SDS011;63488;48.092;-1.640;2022-09-12T19:48:39;2.35;;;0.60;;
74926;SDS011;63488;48.092;-1.640;2022-09-12T19:51:05;6.10;;;0.75;;
74926;SDS011;63488;48.092;-1.640;2022-09-12T19:53:30;3.05;;;0.60;;
74926;SDS011;63488;48.092;-1.640;2022-09-12T19:55:59;2.50;;;0.63;;
74926;SDS011;63488;48.092;-1.640;2022-09-12T19:58:25;3.13;;;0.70;;
74926;SDS011;63488;48.092;-1.640;2022-09-12T20:00:51;1.65;;;0.75;;
74926;SDS011;63488;48.092;-1.640;2022-09-12T20:03:17;2.13;;;0.60;;
74926;SDS011;63488;48.092;-1.640;2022-09-12T20:05:42;0.90;;;0.50;;
74926;SDS011;63488;48.092;-1.640;2022-09-12T20:08:07;3.85;;;0.70;;
74926;SDS011;63488;48.092;-1.640;2022-09-12T20:10:33;2.30;;;0.70;;
74926;SDS011;63488;48.092;-1.640;2022-09-12T20:12:59;4.43;;;0.82;;
74926;SDS011;63488;48.092;-1.640;2022-09-12T20:15:24;3.60;;;0.70;;
74926;SDS011;63488;48.092;-1.640;2022-09-12T20:17:53;2.78;;;0.90;;
74926;SDS011;63488;48.092;-1.640;2022-09-12T20:20:19;1.98;;;0.63;;
74926;SDS011;63488;48.092;-1.640;2022-09-12T20:22:48;5.80;;;0.90;;
74926;SDS011;63488;48.092;-1.640;2022-09-12T20:25:13;2.10;;;1.00;;
74926;SDS011;63488;48.092;-1.640;2022-09-12T20:27:39;1.38;;;0.70;;
74926;SDS011;63488;48.092;-1.640;2022-09-12T20:30:04;1.20;;;0.60;;
74926;SDS011;63488;48.092;-1.640;2022-09-12T20:32:30;2.47;;;0.70;;
74926;SDS011;63488;48.092;-1.640;2022-09-12T20:34:55;2.60;;;0.88;;
74926;SDS011;63488;48.092;-1.640;2022-09-12T20:37:21;1.70;;;0.60;;
74926;SDS011;63488;48.092;-1.640;2022-09-12T20:39:46;1.85;;;0.60;;
74926;SDS011;63488;48.092;-1.640;2022-09-12T20:42:12;2.20;;;0.70;;
74926;SDS011;63488;48.092;-1.640;2022-09-12T20:44:37;2.15;;;0.63;;
74926;SDS011;63488;48.092;-1.640;2022-09-12T20:47:02;1.58;;;0.57;;
74926;SDS011;63488;48.092;-1.640;2022-09-12T20:49:28;1.05;;;0.82;;
74926;SDS011;63488;48.092;-1.640;2022-09-12T20:51:53;3.58;;;0.90;;
74926;SDS011;63488;48.092;-1.640;2022-09-12T20:54:19;6.22;;;0.98;;
74926;SDS011;63488;48.092;-1.640;2022-09-12T20:56:44;2.28;;;0.68;;
74926;SDS011;63488;48.092;-1.640;2022-09-12T20:59:10;4.68;;;0.80;;
74926;SDS011;63488;48.092;-1.640;2022-09-12T21:01:36;4.03;;;0.90;;
74926;SDS011;63488;48.092;-1.640;2022-09-12T21:04:01;1.52;;;0.70;;
74926;SDS011;63488;48.092;-1.640;2022-09-12T21:06:27;1.33;;;0.60;;
74926;SDS011;63488;48.092;-1.640;2022-09-12T21:08:53;2.13;;;0.70;;
74926;SDS011;63488;48.092;-1.640;2022-09-12T21:13:47;3.80;;;0.93;;
74926;SDS011;63488;48.092;-1.640;2022-09-12T21:16:13;3.42;;;0.70;;
74926;SDS011;63488;48.092;-1.640;2022-09-12T21:18:39;3.20;;;0.60;;
74926;SDS011;63488;48.092;-1.640;2022-09-12T21:21:05;2.70;;;0.80;;
74926;SDS011;63488;48.092;-1.640;2022-09-12T21:23:31;1.67;;;0.70;;
74926;SDS011;63488;48.092;-1.640;2022-09-12T21:25:59;2.38;;;0.75;;
74926;SDS011;63488;48.092;-1.640;2022-09-12T21:28:25;3.17;;;0.70;;
74926;SDS011;63488;48.092;-1.640;2022-09-12T21:30:51;1.95;;;0.70;;
74926;SDS011;63488;48.092;-1.640;2022-09-12T21:33:16;1.23;;;0.60;;
74926;SDS011;63488;48.092;-1.640;2022-09-12T21:35:42;1.23;;;0.70;;
74926;SDS011;63488;48.092;-1.640;2022-09-12T21:38:08;1.40;;;0.70;;
74926;SDS011;63488;48.092;-1.640;2022-09-12T21:40:33;3.33;;;0.70;;
74926;SDS011;63488;48.092;-1.640;2022-09-12T21:42:59;4.32;;;0.77;;
74926;SDS011;63488;48.092;-1.640;2022-09-12T21:45:24;1.50;;;0.60;;
74926;SDS011;63488;48.092;-1.640;2022-09-12T21:47:50;2.30;;;0.77;;
74926;SDS011;63488;48.092;-1.640;2022-09-12T21:50:15;3.42;;;0.90;;
74926;SDS011;63488;48.092;-1.640;2022-09-12T21:52:41;1.83;;;0.80;;
74926;SDS011;63488;48.092;-1.640;2022-09-12T21:55:06;2.10;;;0.70;;
74926;SDS011;63488;48.092;-1.640;2022-09-12T21:57:32;1.88;;;0.70;;
74926;SDS011;63488;48.092;-1.640;2022-09-12T21:59:58;2.50;;;1.00;;
74926;SDS011;63488;48.092;-1.640;2022-09-12T22:02:24;1.88;;;0.55;;
74926;SDS011;63488;48.092;-1.640;2022-09-12T22:04:51;1.63;;;0.70;;
74926;SDS011;63488;48.092;-1.640;2022-09-12T22:07:16;4.72;;;0.90;;
74926;SDS011;63488;48.092;-1.640;2022-09-12T22:09:42;2.75;;;0.70;;
74926;SDS011;63488;48.092;-1.640;2022-09-12T22:12:07;2.80;;;0.90;;
74926;SDS011;63488;48.092;-1.640;2022-09-12T22:14:33;2.80;;;0.70;;
74926;SDS011;63488;48.092;-1.640;2022-09-12T22:16:58;2.17;;;0.68;;
74926;SDS011;63488;48.092;-1.640;2022-09-12T22:19:24;1.45;;;0.60;;
74926;SDS011;63488;48.092;-1.640;2022-09-12T22:21:50;2.65;;;0.60;;
74926;SDS011;63488;48.092;-1.640;2022-09-12T22:24:34;1.75;;;0.80;;
74926;SDS011;63488;48.092;-1.640;2022-09-12T22:26:59;1.20;;;0.70;;
74926;SDS011;63488;48.092;-1.640;2022-09-12T22:29:27;2.03;;;0.80;;
74926;SDS011;63488;48.092;-1.640;2022-09-12T22:31:52;4.43;;;0.70;;
74926;SDS011;63488;48.092;-1.640;2022-09-12T22:34:17;2.05;;;0.70;;
74926;SDS011;63488;48.092;-1.640;2022-09-12T22:36:43;4.00;;;0.70;;
74926;SDS011;63488;48.092;-1.640;2022-09-12T22:39:08;3.00;;;0.50;;
74926;SDS011;63488;48.092;-1.640;2022-09-12T22:41:34;1.52;;;1.00;;
74926;SDS011;63488;48.092;-1.640;2022-09-12T22:43:59;2.85;;;0.70;;
74926;SDS011;63488;48.092;-1.640;2022-09-12T22:46:24;2.53;;;0.95;;
74926;SDS011;63488;48.092;-1.640;2022-09-12T22:48:50;2.85;;;0.68;;
74926;SDS011;63488;48.092;-1.640;2022-09-12T22:51:16;1.65;;;0.63;;
74926;SDS011;63488;48.092;-1.640;2022-09-12T22:53:42;3.10;;;0.77;;
74926;SDS011;63488;48.092;-1.640;2022-09-12T22:56:07;2.33;;;0.68;;
74926;SDS011;63488;48.092;-1.640;2022-09-12T22:58:33;4.78;;;0.80;;
74926;SDS011;63488;48.092;-1.640;2022-09-12T23:01:01;3.15;;;0.80;;
74926;SDS011;63488;48.092;-1.640;2022-09-12T23:03:26;2.10;;;1.17;;
74926;SDS011;63488;48.092;-1.640;2022-09-12T23:05:52;2.70;;;0.60;;
74926;SDS011;63488;48.092;-1.640;2022-09-12T23:08:17;3.60;;;0.55;;
74926;SDS011;63488;48.092;-1.640;2022-09-12T23:10:43;1.85;;;0.70;;
74926;SDS011;63488;48.092;-1.640;2022-09-12T23:13:09;1.42;;;0.70;;
74926;SDS011;63488;48.092;-1.640;2022-09-12T23:15:34;1.42;;;0.60;;
74926;SDS011;63488;48.092;-1.640;2022-09-12T23:18:00;1.98;;;0.80;;
74926;SDS011;63488;48.092;-1.640;2022-09-12T23:20:25;1.85;;;0.70;;
74926;SDS011;63488;48.092;-1.640;2022-09-12T23:22:51;2.40;;;0.70;;
74926;SDS011;63488;48.092;-1.640;2022-09-12T23:25:17;1.52;;;0.73;;
74926;SDS011;63488;48.092;-1.640;2022-09-12T23:27:42;1.80;;;0.60;;
74926;SDS011;63488;48.092;-1.640;2022-09-12T23:30:08;0.82;;;0.52;;
74926;SDS011;63488;48.092;-1.640;2022-09-12T23:32:34;1.80;;;0.68;;
74926;SDS011;63488;48.092;-1.640;2022-09-12T23:34:59;1.83;;;0.70;;